Time;durP1;ratioP1;P1;durP2;ratioP2;P2;SDS_P1;SDS_P2;PMS_P1;PMS_P2;Temp;Humidity;BMP_temperature;BMP_pressure;BME280_temperature;BME280_humidity;BME280_pressure;Samples;Min_cycle;Max_cycle;Signal;HPM_P1;HPM_P2
2023/11/25 00:00:10;;;;;;;0.70;0.57;;;;;;;3.57;100.00;95167.13;5079184;28;20204;-70
2023/11/25 00:02:37;;;;;;;1.43;0.50;;;;;;;3.59;100.00;95152.13;5077625;28;20212;-69
2023/11/25 00:05:05;;;;;;;1.13;0.93;;;;;;;3.51;100.00;95159.94;5078483;28;20204;-69
2023/11/25 00:07:32;;;;;;;1.87;0.80;;;;;;;3.56;100.00;95162.88;5077465;28;20240;-69
2023/11/25 00:09:59;;;;;;;1.03;0.83;;;;;;;3.28;100.00;95151.91;5078269;28;20291;-69
2023/11/25 00:12:26;;;;;;;0.50;0.37;;;;;;;3.03;100.00;95162.44;5077360;28;20889;-69
2023/11/25 00:14:52;;;;;;;2.50;1.10;;;;;;;3.04;100.00;95159.69;5078505;28;20235;-69
2023/11/25 00:17:19;;;;;;;0.53;0.53;;;;;;;3.00;100.00;95157.53;5077082;28;20201;-69
2023/11/25 00:19:46;;;;;;;1.00;0.90;;;;;;;2.93;100.00;95164.34;5078396;28;20288;-70
2023/11/25 00:22:13;;;;;;;1.30;1.20;;;;;;;2.77;100.00;95166.06;5077672;28;20207;-69
2023/11/25 00:24:40;;;;;;;1.43;0.60;;;;;;;2.71;100.00;95164.91;5077683;28;20215;-69
2023/11/25 00:27:06;;;;;;;1.60;0.60;;;;;;;2.87;100.00;95170.16;5077251;28;20227;-69
2023/11/25 00:29:33;;;;;;;0.57;0.57;;;;;;;2.86;100.00;95175.53;5077855;28;20208;-69
2023/11/25 00:32:01;;;;;;;0.60;0.60;;;;;;;2.87;100.00;95172.78;5077966;28;20257;-69
2023/11/25 00:34:29;;;;;;;2.30;0.83;;;;;;;2.82;100.00;95185.44;5076955;28;20584;-69
2023/11/25 00:36:57;;;;;;;1.50;1.10;;;;;;;2.90;100.00;95180.25;5077887;28;20196;-69
2023/11/25 00:39:23;;;;;;;1.67;0.60;;;;;;;2.85;100.00;95182.53;5077039;28;20223;-69
2023/11/25 00:41:50;;;;;;;1.73;1.00;;;;;;;2.97;100.00;95193.47;5077269;28;20208;-69
2023/11/25 00:44:16;;;;;;;0.60;0.57;;;;;;;3.07;100.00;95202.78;5077515;28;20204;-69
2023/11/25 00:46:43;;;;;;;0.50;0.50;;;;;;;3.18;100.00;95210.28;5076721;28;20251;-69
2023/11/25 00:49:11;;;;;;;0.93;0.50;;;;;;;3.05;100.00;95212.53;5077234;28;21293;-69
2023/11/25 00:51:37;;;;;;;0.50;0.50;;;;;;;2.97;100.00;95214.28;5077211;28;20204;-69
2023/11/25 00:54:06;;;;;;;2.30;0.80;;;;;;;2.91;100.00;95215.72;5077918;28;20207;-69
2023/11/25 00:56:32;;;;;;;0.60;0.60;;;;;;;2.73;100.00;95227.97;5076263;28;20204;-69
2023/11/25 00:58:59;;;;;;;2.20;0.90;;;;;;;2.63;100.00;95235.06;5077640;28;20313;-69
2023/11/25 01:01:26;;;;;;;2.00;1.30;;;;;;;2.72;100.00;95226.34;5077381;28;20200;-69
2023/11/25 01:03:53;;;;;;;0.50;0.50;;;;;;;2.75;100.00;95220.84;5076162;28;20215;-70
2023/11/25 01:06:20;;;;;;;0.70;0.70;;;;;;;2.82;100.00;95224.44;5076294;28;20223;-69
2023/11/25 01:08:46;;;;;;;1.10;0.93;;;;;;;2.64;100.00;95228.91;5077532;28;21073;-69
2023/11/25 01:11:16;;;;;;;2.03;1.03;;;;;;;2.87;100.00;95240.41;5077210;28;20203;-69
2023/11/25 01:13:43;;;;;;;2.50;0.83;;;;;;;2.76;100.00;95243.28;5076567;28;20210;-70
2023/11/25 01:16:16;;;;;;;0.83;0.60;;;;;;;2.81;100.00;95246.22;5076113;28;20207;-69
2023/11/25 01:18:43;;;;;;;7.90;0.77;;;;;;;2.69;100.00;95249.25;5076436;28;20273;-69
2023/11/25 01:21:09;;;;;;;0.97;0.70;;;;;;;2.79;100.00;95258.56;5077887;28;20549;-70
2023/11/25 01:23:36;;;;;;;0.87;0.60;;;;;;;2.81;100.00;95261.81;5076737;28;20206;-69
2023/11/25 01:26:03;;;;;;;3.13;0.97;;;;;;;2.82;100.00;95271.25;5076586;28;20204;-69
2023/11/25 01:28:31;;;;;;;0.60;0.60;;;;;;;2.90;100.00;95281.72;5076617;28;20227;-69
2023/11/25 01:30:57;;;;;;;0.60;0.60;;;;;;;2.81;100.00;95274.84;5076931;28;20728;-69
2023/11/25 01:33:25;;;;;;;0.57;0.50;;;;;;;2.67;100.00;95296.22;5076249;28;20205;-69
2023/11/25 01:35:52;;;;;;;2.83;0.80;;;;;;;2.55;100.00;95302.63;5076500;28;20257;-69
2023/11/25 01:38:19;;;;;;;0.60;0.60;;;;;;;2.25;100.00;95293.59;5076649;28;20274;-69
2023/11/25 01:40:45;;;;;;;0.60;0.60;;;;;;;2.27;100.00;95300.28;5076765;28;20272;-69
2023/11/25 01:43:14;;;;;;;2.60;0.93;;;;;;;2.32;100.00;95318.00;5076353;28;21151;-69
2023/11/25 01:45:42;;;;;;;1.13;0.80;;;;;;;2.53;100.00;95327.97;5076244;28;20211;-69
2023/11/25 01:48:08;;;;;;;1.93;0.63;;;;;;;2.32;100.00;95328.41;5076083;28;21034;-69
2023/11/25 01:50:38;;;;;;;0.70;0.70;;;;;;;2.30;100.00;95333.75;5076928;28;20211;-69
2023/11/25 01:53:05;;;;;;;0.60;0.60;;;;;;;2.51;100.00;95336.88;5076459;28;20207;-69
2023/11/25 01:55:32;;;;;;;0.50;0.50;;;;;;;2.56;100.00;95335.47;5075927;28;20214;-69
2023/11/25 01:58:00;;;;;;;0.50;0.47;;;;;;;2.81;100.00;95346.84;5077188;28;20227;-69
2023/11/25 02:00:28;;;;;;;0.70;0.50;;;;;;;2.40;100.00;95347.50;5076111;28;20204;-70
2023/11/25 02:02:57;;;;;;;0.50;0.50;;;;;;;2.26;100.00;95347.22;5076352;28;20212;-69
2023/11/25 02:05:24;;;;;;;0.53;0.53;;;;;;;2.13;100.00;95344.19;5075692;28;20266;-69
2023/11/25 02:07:51;;;;;;;0.63;0.57;;;;;;;2.19;100.00;95351.38;5076236;28;20332;-69
2023/11/25 02:10:19;;;;;;;0.50;0.50;;;;;;;2.13;100.00;95351.97;5076273;28;20200;-69
2023/11/25 02:12:46;;;;;;;1.63;0.57;;;;;;;2.07;100.00;95355.16;5075564;28;20204;-69
2023/11/25 02:15:14;;;;;;;2.67;1.00;;;;;;;2.17;100.00;95350.72;5078628;28;20222;-69
2023/11/25 02:17:42;;;;;;;1.07;0.50;;;;;;;2.13;100.00;95364.97;5079774;28;20223;-69
2023/11/25 02:20:13;;;;;;;1.40;0.60;;;;;;;2.22;100.00;95374.47;5080229;28;20673;-69
2023/11/25 02:22:40;;;;;;;1.33;0.53;;;;;;;2.10;100.00;95368.69;5079995;28;20214;-69
2023/11/25 02:25:09;;;;;;;1.00;0.70;;;;;;;2.20;100.00;95379.81;5081084;28;20319;-69
2023/11/25 02:27:35;;;;;;;1.20;1.10;;;;;;;2.02;100.00;95389.34;5078786;28;20315;-69
2023/11/25 02:30:05;;;;;;;0.57;0.57;;;;;;;2.25;100.00;95397.56;5079916;28;20204;-69
2023/11/25 02:32:33;;;;;;;0.70;0.70;;;;;;;2.07;100.00;95391.53;5080097;28;20208;-69
2023/11/25 02:35:00;;;;;;;0.97;0.80;;;;;;;2.27;100.00;95393.03;5080372;28;20235;-69
2023/11/25 02:37:26;;;;;;;1.57;1.17;;;;;;;2.34;100.00;95397.47;5079041;28;20286;-69
2023/11/25 02:39:53;;;;;;;0.40;0.40;;;;;;;2.32;100.00;95409.81;5079478;28;20203;-69
2023/11/25 02:42:21;;;;;;;0.80;0.80;;;;;;;2.38;100.00;95416.19;5079769;28;20203;-69
2023/11/25 02:44:47;;;;;;;0.50;0.50;;;;;;;2.39;100.00;95417.84;5079524;28;20208;-69
2023/11/25 02:47:14;;;;;;;0.77;0.60;;;;;;;2.37;100.00;95427.56;5079363;28;20223;-69
2023/11/25 02:49:40;;;;;;;0.60;0.60;;;;;;;2.27;100.00;95426.81;5079408;28;20227;-69
2023/11/25 02:52:07;;;;;;;0.50;0.50;;;;;;;2.33;100.00;95440.06;5079612;28;20207;-69
2023/11/25 02:54:34;;;;;;;1.83;0.60;;;;;;;2.32;100.00;95446.22;5078930;28;21006;-69
2023/11/25 02:57:00;;;;;;;0.50;0.50;;;;;;;2.46;100.00;95449.09;5079190;28;20196;-70
2023/11/25 02:59:28;;;;;;;3.13;0.77;;;;;;;2.52;100.00;95452.91;5079146;28;20234;-69
2023/11/25 03:01:55;;;;;;;0.60;0.60;;;;;;;2.49;100.00;95455.78;5079041;28;20588;-69
2023/11/25 03:04:23;;;;;;;0.60;0.60;;;;;;;2.63;100.00;95456.09;5079837;28;20680;-69
2023/11/25 03:06:51;;;;;;;3.07;0.60;;;;;;;2.50;100.00;95453.03;5078372;28;20229;-69
2023/11/25 03:09:17;;;;;;;0.73;0.60;;;;;;;2.36;100.00;95462.34;5077135;28;20303;-69
2023/11/25 03:11:44;;;;;;;0.97;0.70;;;;;;;2.29;100.00;95471.66;5079368;28;20211;-69
2023/11/25 03:14:10;;;;;;;2.00;0.60;;;;;;;2.33;100.00;95473.84;5079368;28;20214;-69
2023/11/25 03:16:38;;;;;;;2.00;0.67;;;;;;;2.35;100.00;95477.09;5078300;28;20275;-69
2023/11/25 03:19:09;;;;;;;1.87;0.60;;;;;;;2.26;100.00;95484.97;5079508;28;20228;-69
2023/11/25 03:21:35;;;;;;;1.20;0.80;;;;;;;2.35;100.00;95491.88;5079098;28;20207;-69
2023/11/25 03:24:03;;;;;;;1.77;0.70;;;;;;;2.36;100.00;95489.13;5078432;28;20210;-69
2023/11/25 03:26:30;;;;;;;0.50;0.50;;;;;;;2.25;100.00;95506.72;5078108;28;20294;-69
2023/11/25 03:28:56;;;;;;;0.87;0.70;;;;;;;2.17;100.00;95507.44;5078382;28;20225;-69
2023/11/25 03:31:23;;;;;;;2.80;0.80;;;;;;;2.34;100.00;95511.84;5078505;28;20202;-69
2023/11/25 03:33:51;;;;;;;1.77;0.60;;;;;;;2.53;100.00;95524.75;5078381;28;20249;-69
2023/11/25 03:36:18;;;;;;;0.80;0.77;;;;;;;2.37;100.00;95528.94;5078226;28;20204;-69
2023/11/25 03:38:45;;;;;;;3.67;0.70;;;;;;;2.29;100.00;95531.44;5078740;28;20220;-69
2023/11/25 03:41:12;;;;;;;0.70;0.70;;;;;;;2.39;100.00;95529.63;5079954;28;20205;-69
2023/11/25 03:43:39;;;;;;;1.23;0.70;;;;;;;2.41;100.00;95523.31;5077914;28;20245;-69
2023/11/25 03:46:06;;;;;;;0.67;0.67;;;;;;;2.45;100.00;95525.47;5078137;28;20215;-69
2023/11/25 03:48:34;;;;;;;1.03;0.83;;;;;;;2.48;100.00;95526.94;5078909;28;20228;-69
2023/11/25 03:51:02;;;;;;;0.53;0.53;;;;;;;2.59;100.00;95532.78;5078862;28;20205;-69
2023/11/25 03:53:29;;;;;;;0.97;0.73;;;;;;;2.49;100.00;95533.78;5077636;28;20324;-69
2023/11/25 03:55:55;;;;;;;0.77;0.67;;;;;;;2.42;100.00;95543.97;5077851;28;20199;-69
2023/11/25 03:58:22;;;;;;;0.60;0.60;;;;;;;2.20;100.00;95538.34;5078046;28;20707;-69
2023/11/25 04:00:49;;;;;;;0.70;0.60;;;;;;;2.32;100.00;95541.53;5077763;28;20200;-69
2023/11/25 04:03:17;;;;;;;0.50;0.50;;;;;;;2.23;100.00;95555.41;5078191;28;20235;-69
2023/11/25 04:05:43;;;;;;;1.23;0.50;;;;;;;2.23;100.00;95552.81;5077650;28;20208;-69
2023/11/25 04:08:11;;;;;;;0.80;0.77;;;;;;;2.41;100.00;95557.09;5078213;28;20239;-69
2023/11/25 04:10:37;;;;;;;1.40;0.67;;;;;;;2.35;100.00;95559.47;5078103;28;20589;-69
2023/11/25 04:13:04;;;;;;;0.90;0.70;;;;;;;2.26;100.00;95561.13;5077889;28;20241;-69
2023/11/25 04:15:31;;;;;;;1.17;1.07;;;;;;;2.22;100.00;95566.78;5077339;28;20223;-69
2023/11/25 04:17:57;;;;;;;0.37;0.37;;;;;;;2.32;100.00;95562.34;5077451;28;20721;-69
2023/11/25 04:20:28;;;;;;;0.57;0.57;;;;;;;2.20;100.00;95566.09;5078317;28;20202;-69
2023/11/25 04:22:55;;;;;;;1.20;0.50;;;;;;;2.40;100.00;95569.28;5077926;28;20205;-69
2023/11/25 04:25:24;;;;;;;1.07;0.60;;;;;;;2.43;100.00;95571.59;5078154;28;20209;-69
2023/11/25 04:27:51;;;;;;;1.93;0.70;;;;;;;2.39;100.00;95577.22;5076710;28;20281;-69
2023/11/25 04:30:18;;;;;;;0.40;0.40;;;;;;;2.47;100.00;95587.75;5078692;28;20199;-69
2023/11/25 04:32:46;;;;;;;1.37;0.90;;;;;;;2.34;100.00;95581.22;5076416;28;20218;-69
2023/11/25 04:35:13;;;;;;;0.70;0.70;;;;;;;2.19;100.00;95585.25;5077574;28;20210;-69
2023/11/25 04:37:43;;;;;;;1.60;0.60;;;;;;;2.24;100.00;95590.81;5075889;28;21070;-69
2023/11/25 04:40:11;;;;;;;0.50;0.50;;;;;;;2.14;100.00;95588.28;5077599;28;20214;-69
2023/11/25 04:42:39;;;;;;;1.07;0.77;;;;;;;2.17;100.00;95597.56;5077707;28;20573;-69
2023/11/25 04:45:15;;;;;;;1.23;0.70;;;;;;;2.10;100.00;95599.09;5078267;28;20211;-69
2023/11/25 04:47:44;;;;;;;3.40;0.70;;;;;;;2.07;100.00;95601.97;5076364;28;20255;-69
2023/11/25 04:50:11;;;;;;;1.53;0.83;;;;;;;2.02;100.00;95604.16;5076943;28;20606;-69
2023/11/25 04:52:38;;;;;;;0.70;0.70;;;;;;;2.03;100.00;95608.41;5078460;28;20906;-69
2023/11/25 04:55:06;;;;;;;1.23;0.77;;;;;;;2.22;100.00;95613.56;5076545;28;20214;-69
2023/11/25 04:57:32;;;;;;;3.30;1.13;;;;;;;2.24;100.00;95611.63;5076745;28;20227;-69
2023/11/25 05:00:02;;;;;;;1.47;0.70;;;;;;;2.40;100.00;95611.84;5077383;28;20678;-69
2023/11/25 05:02:29;;;;;;;1.30;0.63;;;;;;;2.13;100.00;95617.00;5077309;28;20656;-69
2023/11/25 05:04:55;;;;;;;1.30;0.70;;;;;;;2.16;100.00;95620.13;5077118;28;20239;-70
2023/11/25 05:07:22;;;;;;;3.40;0.80;;;;;;;2.19;100.00;95622.47;5076392;28;21497;-69
2023/11/25 05:09:49;;;;;;;0.60;0.60;;;;;;;2.26;100.00;95627.91;5077828;28;20208;-69
2023/11/25 05:12:15;;;;;;;1.17;0.70;;;;;;;2.08;100.00;95638.19;5077027;28;20199;-69
2023/11/25 05:14:42;;;;;;;0.93;0.90;;;;;;;2.16;100.00;95640.09;5077294;28;20218;-69
2023/11/25 05:17:10;;;;;;;2.23;0.97;;;;;;;2.34;100.00;95643.59;5076287;28;20326;-69
2023/11/25 05:19:37;;;;;;;3.80;0.97;;;;;;;2.25;100.00;95647.06;5077031;28;20204;-69
2023/11/25 05:22:04;;;;;;;1.37;1.10;;;;;;;2.16;100.00;95651.31;5076816;28;20207;-69
2023/11/25 05:24:31;;;;;;;2.57;1.10;;;;;;;2.06;100.00;95647.94;5077386;28;20203;-69
2023/11/25 05:26:58;;;;;;;2.27;1.10;;;;;;;2.08;100.00;95651.19;5076147;28;20210;-69
2023/11/25 05:29:24;;;;;;;8.33;2.43;;;;;;;2.17;100.00;95655.56;5076446;28;20712;-69
2023/11/25 05:31:51;;;;;;;4.33;1.20;;;;;;;1.97;100.00;95655.72;5077037;28;20207;-69
2023/11/25 05:34:19;;;;;;;0.80;0.80;;;;;;;2.05;100.00;95651.47;5076368;28;20203;-69
2023/11/25 05:36:46;;;;;;;1.20;0.70;;;;;;;1.80;100.00;95651.25;5075851;28;20692;-69
2023/11/25 05:39:13;;;;;;;1.13;0.73;;;;;;;1.63;100.00;95651.97;5076098;28;20635;-69
2023/11/25 05:41:40;;;;;;;4.53;0.93;;;;;;;1.49;100.00;95647.19;5076837;28;21345;-69
2023/11/25 05:44:09;;;;;;;1.13;1.00;;;;;;;1.57;100.00;95644.72;5076537;28;21138;-69
2023/11/25 05:46:36;;;;;;;1.33;0.97;;;;;;;1.61;100.00;95643.47;5075620;28;21160;-69
2023/11/25 05:49:03;;;;;;;3.53;1.10;;;;;;;1.51;100.00;95642.66;5078380;28;20237;-69
2023/11/25 05:51:35;;;;;;;3.97;1.77;;;;;;;1.81;100.00;95632.13;5080546;28;20227;-69
2023/11/25 05:54:02;;;;;;;4.53;1.90;;;;;;;1.52;100.00;95646.09;5080795;28;20200;-69
2023/11/25 05:56:29;;;;;;;7.30;4.50;;;;;;;1.59;100.00;95644.56;5080680;28;20214;-69
2023/11/25 05:58:56;;;;;;;7.10;4.77;;;;;;;1.58;100.00;95651.53;5080501;28;20222;-69
2023/11/25 06:01:23;;;;;;;5.27;4.40;;;;;;;1.58;100.00;95651.53;5080006;28;21041;-69
2023/11/25 06:03:50;;;;;;;14.77;12.10;;;;;;;1.65;100.00;95650.03;5081570;28;20206;-69
2023/11/25 06:06:18;;;;;;;3.07;2.33;;;;;;;1.59;100.00;95653.19;5080252;28;20258;-69
2023/11/25 06:08:47;;;;;;;5.23;2.80;;;;;;;1.59;100.00;95658.38;5079495;28;20849;-69
2023/11/25 06:11:19;;;;;;;4.53;1.90;;;;;;;1.66;100.00;95649.06;5080370;28;20200;-69
2023/11/25 06:13:46;;;;;;;3.23;1.93;;;;;;;1.51;100.00;95645.25;5080069;28;20665;-69
2023/11/25 06:16:13;;;;;;;1.87;1.60;;;;;;;1.52;100.00;95651.28;5078971;28;20277;-69
2023/11/25 06:18:40;;;;;;;3.03;1.20;;;;;;;1.34;100.00;95651.13;5080325;28;20215;-69
2023/11/25 06:21:06;;;;;;;1.60;1.47;;;;;;;1.46;100.00;95657.00;5080580;28;20196;-69
2023/11/25 06:23:33;;;;;;;2.93;1.17;;;;;;;1.32;100.00;95645.28;5079458;28;20195;-69
2023/11/25 06:26:01;;;;;;;7.20;1.80;;;;;;;1.51;100.00;95650.44;5079940;28;20199;-70
2023/11/25 06:28:28;;;;;;;5.77;1.37;;;;;;;1.40;100.00;95648.00;5079984;28;20223;-70
2023/11/25 06:30:55;;;;;;;1.20;1.10;;;;;;;1.21;100.00;95653.16;5079989;28;20199;-68
2023/11/25 06:33:24;;;;;;;2.23;1.17;;;;;;;1.43;100.00;95652.91;5079653;28;20198;-69
2023/11/25 06:35:50;;;;;;;2.67;1.20;;;;;;;1.39;100.00;95648.94;5079576;28;20200;-69
2023/11/25 06:38:16;;;;;;;2.30;1.30;;;;;;;1.36;100.00;95649.22;5080077;28;20215;-69
2023/11/25 06:40:43;;;;;;;1.33;0.90;;;;;;;1.26;100.00;95656.19;5079853;28;20229;-69
2023/11/25 06:43:10;;;;;;;1.27;1.17;;;;;;;1.59;100.00;95658.38;5079769;28;20213;-71
2023/11/25 06:45:40;;;;;;;2.97;1.33;;;;;;;1.46;100.00;95660.41;5078972;28;20196;-70
2023/11/25 06:48:07;;;;;;;3.80;1.40;;;;;;;1.51;100.00;95665.19;5079084;28;20227;-70
2023/11/25 06:50:34;;;;;;;1.60;1.17;;;;;;;1.57;100.00;95662.06;5079547;28;20695;-71
2023/11/25 06:53:00;;;;;;;1.23;1.10;;;;;;;1.53;100.00;95674.50;5079431;28;20198;-70
2023/11/25 06:55:27;;;;;;;1.43;1.33;;;;;;;1.61;100.00;95666.03;5079438;28;20207;-70
2023/11/25 06:57:52;;;;;;;1.17;1.07;;;;;;;1.61;100.00;95664.25;5080099;28;20705;-69
2023/11/25 07:00:22;;;;;;;3.43;1.47;;;;;;;1.67;100.00;95671.50;5079035;28;20261;-71
2023/11/25 07:02:49;;;;;;;2.13;1.40;;;;;;;1.63;100.00;95670.13;5078918;28;20207;-71
2023/11/25 07:05:16;;;;;;;3.07;1.20;;;;;;;1.74;100.00;95669.97;5079210;28;20251;-71
2023/11/25 07:07:43;;;;;;;9.67;1.50;;;;;;;1.93;100.00;95672.56;5079548;28;20593;-71
2023/11/25 07:10:10;;;;;;;2.57;1.20;;;;;;;2.07;100.00;95674.72;5079559;28;20200;-70
2023/11/25 07:12:36;;;;;;;4.63;1.50;;;;;;;1.87;100.00;95675.69;5078847;28;20252;-70
2023/11/25 07:15:04;;;;;;;3.63;1.60;;;;;;;1.83;100.00;95687.31;5079795;28;20588;-69
2023/11/25 07:17:32;;;;;;;3.03;1.83;;;;;;;2.09;100.00;95678.81;5079034;28;20227;-69
2023/11/25 07:19:59;;;;;;;4.20;2.03;;;;;;;1.78;100.00;95679.13;5079178;28;20989;-69
2023/11/25 07:22:25;;;;;;;3.67;1.60;;;;;;;2.03;100.00;95675.97;5078902;28;20238;-69
2023/11/25 07:24:52;;;;;;;3.50;1.73;;;;;;;1.91;100.00;95680.50;5079078;28;20196;-69
2023/11/25 07:27:19;;;;;;;3.10;1.70;;;;;;;2.04;100.00;95680.22;5078260;28;20200;-69
2023/11/25 07:29:45;;;;;;;2.97;1.90;;;;;;;2.13;100.00;95677.59;5078166;28;20223;-70
2023/11/25 07:32:13;;;;;;;4.47;1.20;;;;;;;2.00;100.00;95684.84;5078692;28;20199;-69
2023/11/25 07:34:40;;;;;;;1.10;1.00;;;;;;;2.26;100.00;95675.50;5078351;28;20245;-69
2023/11/25 07:37:07;;;;;;;3.17;1.40;;;;;;;2.03;100.00;95670.78;5078565;28;20207;-69
2023/11/25 07:39:35;;;;;;;9.60;2.33;;;;;;;2.33;100.00;95671.38;5078770;28;20225;-69
2023/11/25 07:42:01;;;;;;;10.50;2.70;;;;;;;2.19;100.00;95668.41;5078570;28;20200;-69
2023/11/25 07:44:30;;;;;;;1.90;1.27;;;;;;;2.38;100.00;95673.53;5078812;28;20210;-69
2023/11/25 07:46:56;;;;;;;2.70;1.40;;;;;;;2.16;100.00;95684.28;5077954;28;20600;-69
2023/11/25 07:49:23;;;;;;;1.17;1.07;;;;;;;2.30;100.00;95681.25;5078485;28;20596;-70
2023/11/25 07:51:51;;;;;;;1.83;1.13;;;;;;;2.42;100.00;95681.75;5077950;28;20253;-70
2023/11/25 07:54:18;;;;;;;3.33;1.40;;;;;;;2.16;100.00;95684.28;5078514;28;21083;-69
2023/11/25 07:56:45;;;;;;;5.47;2.13;;;;;;;2.22;100.00;95683.72;5078006;28;20203;-70
2023/11/25 07:59:13;;;;;;;2.40;1.33;;;;;;;2.23;100.00;95683.59;5078271;28;20220;-70
2023/11/25 08:01:40;;;;;;;7.80;1.83;;;;;;;2.23;100.00;95685.34;5078101;28;20203;-70
2023/11/25 08:04:06;;;;;;;3.37;1.33;;;;;;;2.40;100.00;95690.66;5078266;28;20204;-70
2023/11/25 08:06:33;;;;;;;13.03;4.27;;;;;;;2.44;100.00;95698.03;5077385;28;20199;-70
2023/11/25 08:09:02;;;;;;;8.90;1.10;;;;;;;2.37;100.00;95693.53;5078202;28;20231;-70
2023/11/25 08:11:29;;;;;;;3.20;2.10;;;;;;;2.58;100.00;95694.97;5077913;28;21292;-68
2023/11/25 08:13:56;;;;;;;3.40;1.30;;;;;;;2.34;100.00;95698.19;5077647;28;20286;-69
2023/11/25 08:16:23;;;;;;;7.90;2.23;;;;;;;2.20;100.00;95702.06;5076929;28;20691;-70
2023/11/25 08:18:50;;;;;;;2.90;1.83;;;;;;;2.43;100.00;95695.56;5077793;28;20649;-69
2023/11/25 08:21:18;;;;;;;5.73;1.80;;;;;;;2.65;100.00;95706.44;5077908;28;20742;-69
2023/11/25 08:23:45;;;;;;;2.73;1.60;;;;;;;2.67;100.00;95704.53;5077696;28;20575;-70
2023/11/25 08:26:19;;;;;;;2.10;1.20;;;;;;;2.71;100.00;95699.84;5077643;28;20200;-70
2023/11/25 08:28:46;;;;;;;1.63;1.47;;;;;;;2.40;100.00;95700.22;5077534;28;20249;-70
2023/11/25 08:31:13;;;;;;;6.87;2.07;;;;;;;2.40;100.00;95704.44;5077442;28;20197;-68
2023/11/25 08:33:40;;;;;;;2.97;1.73;;;;;;;2.58;100.00;95709.75;5076928;28;20607;-69
2023/11/25 08:36:07;;;;;;;4.40;1.90;;;;;;;2.57;100.00;95714.13;5076884;28;20575;-72
2023/11/25 08:38:34;;;;;;;2.57;1.80;;;;;;;2.34;100.00;95719.00;5077820;28;20230;-70
2023/11/25 08:41:01;;;;;;;2.97;2.03;;;;;;;2.57;100.00;95721.94;5077580;28;20665;-71
2023/11/25 08:43:29;;;;;;;8.43;2.00;;;;;;;2.68;100.00;95716.56;5077785;28;20201;-68
2023/11/25 08:45:56;;;;;;;1.97;1.37;;;;;;;2.67;100.00;95729.69;5076630;28;20269;-70
2023/11/25 08:48:23;;;;;;;1.50;1.33;;;;;;;2.61;100.00;95723.28;5078159;28;20223;-71
2023/11/25 08:50:49;;;;;;;3.20;1.30;;;;;;;2.44;100.00;95734.44;5077489;28;20204;-70
2023/11/25 08:53:16;;;;;;;6.40;1.83;;;;;;;2.63;100.00;95731.75;5077284;28;20575;-71
2023/11/25 08:55:42;;;;;;;3.13;1.63;;;;;;;2.49;100.00;95742.59;5076443;28;20288;-70
2023/11/25 08:58:09;;;;;;;2.37;1.30;;;;;;;2.51;100.00;95735.50;5077616;28;20226;-70
2023/11/25 09:00:37;;;;;;;2.17;1.10;;;;;;;2.54;100.00;95742.19;5076949;28;20204;-68
2023/11/25 09:03:07;;;;;;;3.37;1.17;;;;;;;2.66;100.00;95731.50;5077052;28;20204;-69
2023/11/25 09:05:36;;;;;;;1.93;1.00;;;;;;;2.65;100.00;95737.66;5076352;28;20207;-68
2023/11/25 09:08:06;;;;;;;3.30;1.17;;;;;;;2.84;100.00;95740.19;5076487;28;21193;-68
2023/11/25 09:10:34;;;;;;;2.80;1.20;;;;;;;2.84;100.00;95745.41;5076767;28;20224;-70
2023/11/25 09:13:02;;;;;;;2.77;1.67;;;;;;;2.92;100.00;95736.88;5076368;28;20405;-68
2023/11/25 09:15:28;;;;;;;8.43;1.33;;;;;;;3.01;100.00;95747.25;5076442;28;20592;-69
2023/11/25 09:17:56;;;;;;;1.80;0.90;;;;;;;3.07;100.00;95757.09;5075173;28;21312;-69
2023/11/25 09:20:23;;;;;;;4.43;1.30;;;;;;;2.87;100.00;95752.91;5077420;28;20201;-70
2023/11/25 09:22:50;;;;;;;2.30;1.50;;;;;;;3.00;100.00;95757.78;5076508;28;20199;-70
2023/11/25 09:25:17;;;;;;;1.23;0.87;;;;;;;2.82;100.00;95751.69;5076229;28;20286;-69
2023/11/25 09:27:45;;;;;;;2.47;1.33;;;;;;;2.91;100.00;95756.84;5075005;28;20215;-69
2023/11/25 09:30:12;;;;;;;1.33;1.00;;;;;;;2.96;100.00;95759.84;5076814;28;20220;-70
2023/11/25 09:32:39;;;;;;;2.17;1.33;;;;;;;3.01;100.00;95757.66;5076980;28;20262;-69
2023/11/25 09:35:08;;;;;;;5.30;1.20;;;;;;;3.35;100.00;95756.13;5076507;28;20196;-71
2023/11/25 09:37:35;;;;;;;1.53;1.27;;;;;;;3.33;100.00;95750.25;5076667;28;20221;-70
2023/11/25 09:40:04;;;;;;;3.90;2.30;;;;;;;3.12;100.00;95760.09;5076220;28;20603;-70
2023/11/25 09:42:31;;;;;;;1.43;1.30;;;;;;;3.17;100.00;95750.88;5076184;28;20316;-69
2023/11/25 09:44:58;;;;;;;4.30;1.70;;;;;;;3.37;100.00;95759.41;5076782;28;20207;-69
2023/11/25 09:47:25;;;;;;;5.80;1.87;;;;;;;3.45;100.00;95751.66;5076148;28;20212;-72
2023/11/25 09:49:51;;;;;;;2.83;1.40;;;;;;;3.51;100.00;95746.69;5076435;28;20252;-69
2023/11/25 09:52:21;;;;;;;6.87;2.80;;;;;;;3.54;100.00;95754.22;5077024;28;20196;-72
2023/11/25 09:54:47;;;;;;;2.77;1.60;;;;;;;3.50;100.00;95749.44;5076327;28;20193;-70
2023/11/25 09:57:18;;;;;;;4.90;1.83;;;;;;;3.44;100.00;95745.66;5075763;28;20211;-71
2023/11/25 09:59:45;;;;;;;2.03;1.07;;;;;;;3.42;100.00;95752.78;5076562;28;20205;-70
2023/11/25 10:02:13;;;;;;;5.53;1.67;;;;;;;3.49;100.00;95747.81;5076417;28;20194;-70
2023/11/25 10:04:40;;;;;;;3.40;1.57;;;;;;;3.22;100.00;95740.84;5076905;28;20213;-70
2023/11/25 10:07:07;;;;;;;1.50;1.00;;;;;;;3.32;100.00;95740.78;5075268;28;20764;-70
2023/11/25 10:09:39;;;;;;;5.20;1.63;;;;;;;3.50;100.00;95733.81;5076637;28;20230;-70
2023/11/25 10:12:07;;;;;;;0.70;0.70;;;;;;;3.43;100.00;95732.78;5075629;28;20213;-69
2023/11/25 10:14:34;;;;;;;1.23;1.00;;;;;;;3.40;100.00;95739.09;5076610;28;20590;-70
2023/11/25 10:17:16;;;;;;;3.37;1.30;;;;;;;3.63;100.00;95735.13;5075564;28;20196;-70
2023/11/25 10:19:43;;;;;;;2.47;1.73;;;;;;;3.44;100.00;95729.22;5073583;28;20201;-70
2023/11/25 10:22:11;;;;;;;1.70;1.10;;;;;;;3.56;100.00;95728.03;5076343;28;20220;-69
2023/11/25 10:24:47;;;;;;;1.10;1.00;;;;;;;3.69;100.00;95732.75;5074877;28;20318;-70
2023/11/25 10:27:13;;;;;;;3.73;1.30;;;;;;;3.40;100.00;95727.84;5074460;28;20658;-69
2023/11/25 10:29:42;;;;;;;1.40;1.30;;;;;;;3.43;100.00;95719.75;5075730;28;20233;-69
2023/11/25 10:32:10;;;;;;;2.27;1.40;;;;;;;3.57;100.00;95724.47;5076769;28;20197;-70
2023/11/25 10:34:37;;;;;;;9.07;3.07;;;;;;;3.47;100.00;95715.91;5075726;28;20209;-70
2023/11/25 10:37:05;;;;;;;25.93;8.20;;;;;;;3.64;100.00;95714.13;5078928;28;20224;-70
2023/11/25 10:39:35;;;;;;;29.07;11.07;;;;;;;3.78;100.00;95708.41;5080163;28;20220;-69
2023/11/25 10:42:07;;;;;;;6.33;2.53;;;;;;;3.79;100.00;95715.25;5079215;28;20207;-69
2023/11/25 10:44:34;;;;;;;3.73;2.33;;;;;;;3.82;100.00;95701.94;5079650;28;20217;-70
2023/11/25 10:47:02;;;;;;;6.43;1.90;;;;;;;3.64;100.00;95703.72;5079087;28;20224;-69
2023/11/25 10:49:32;;;;;;;5.67;1.43;;;;;;;3.85;100.00;95706.81;5080378;28;20233;-69
2023/11/25 10:52:03;;;;;;;1.50;1.20;;;;;;;4.00;100.00;95694.91;5078948;28;20203;-69
2023/11/25 10:54:31;;;;;;;3.80;1.43;;;;;;;3.85;100.00;95693.78;5080174;28;21224;-69
2023/11/25 10:56:59;;;;;;;4.63;1.20;;;;;;;3.98;100.00;95689.03;5078836;28;20212;-70
2023/11/25 10:59:29;;;;;;;2.40;1.10;;;;;;;4.13;100.00;95676.28;5079077;28;20249;-70
2023/11/25 11:01:59;;;;;;;2.43;0.93;;;;;;;3.92;100.00;95680.97;5079560;28;20854;-69
2023/11/25 11:04:32;;;;;;;1.53;1.00;;;;;;;4.12;100.00;95678.06;5080059;28;20201;-70
2023/11/25 11:07:03;;;;;;;3.37;0.80;;;;;;;4.09;100.00;95674.94;5078389;28;20769;-70
2023/11/25 11:09:34;;;;;;;4.83;1.40;;;;;;;4.03;100.00;95681.56;5079134;28;20234;-70
2023/11/25 11:12:05;;;;;;;0.43;0.43;;;;;;;4.07;100.00;95672.47;5079283;28;20224;-70
2023/11/25 11:14:41;;;;;;;2.63;0.60;;;;;;;4.16;100.00;95666.34;5079310;28;20214;-68
2023/11/25 11:17:15;;;;;;;2.97;1.20;;;;;;;4.05;100.00;95669.22;5079075;28;20221;-70
2023/11/25 11:19:42;;;;;;;2.50;0.93;;;;;;;4.06;100.00;95668.25;5078708;28;20201;-68
2023/11/25 11:22:11;;;;;;;1.23;0.90;;;;;;;4.34;100.00;95659.28;5078989;28;20207;-70
2023/11/25 11:24:55;;;;;;;3.80;1.40;;;;;;;4.48;100.00;95661.34;5078665;28;20220;-69
2023/11/25 11:27:31;;;;;;;0.93;0.60;;;;;;;4.42;100.00;95652.34;5078489;28;20199;-68
2023/11/25 11:30:10;;;;;;;3.00;0.90;;;;;;;4.60;100.00;95641.88;5078769;28;20604;-71
2023/11/25 11:32:39;;;;;;;1.30;0.77;;;;;;;4.03;100.00;95655.50;5079554;28;20744;-71
2023/11/25 11:35:08;;;;;;;1.63;0.90;;;;;;;4.51;100.00;95650.63;5078580;28;20204;-70